PROTG SWGW-SSUM
Flight info
| Callsign | PROTG |
|---|---|
| Flight time | 2h 8m |
| Altitude | 26000 |
| Route | DCT 3007S84734W/N0200A065 IFR DCT EGONI DCT TRL DCT ROKOR DCT |
| Aircraft | B350/L-SBGRW/S |
Departure
| Time | 2026-04-21 18:51 |
|---|---|
| Airport | Fazenda Santa Rita do Araguaia Airport (SWGW) |
Arrival
| Time | 2026-04-21 20:59 |
|---|---|
| Airport | Orlando de Carvalho Airport (SSUM) |
| Time | Latitude | Longitude | Altitude | Speed | Heading |
|---|---|---|---|---|---|
| 2026-04-21 18:44 | -15.45231 | -51.54518 | 954 ft | 0 kts | 13° |
| 2026-04-21 18:49 | -15.45213 | -51.54518 | 954 ft | 2 kts | 310° |
| 2026-04-21 18:49 | -15.45229 | -51.54529 | 955 ft | 0 kts | 179° |
| 2026-04-21 18:50 | -15.45331 | -51.54525 | 956 ft | 45 kts | 176° |
| 2026-04-21 18:51 | -15.45921 | -51.54510 | 961 ft | 120 kts | 176° |
| 2026-04-21 18:51 | -15.46989 | -51.54488 | 1335 ft | 153 kts | 178° |
| 2026-04-21 18:51 | -15.47969 | -51.54451 | 2099 ft | 156 kts | 176° |
| 2026-04-21 18:51 | -15.49109 | -51.54384 | 2636 ft | 171 kts | 162° |
| 2026-04-21 18:52 | -15.50199 | -51.53901 | 3185 ft | 170 kts | 152° |
| 2026-04-21 18:52 | -15.51283 | -51.53316 | 3513 ft | 181 kts | 150° |
| 2026-04-21 18:52 | -15.52391 | -51.52681 | 3943 ft | 185 kts | 149° |
| 2026-04-21 18:52 | -15.53517 | -51.52020 | 4450 ft | 184 kts | 149° |
| 2026-04-21 18:53 | -15.54625 | -51.51363 | 4953 ft | 184 kts | 149° |
| 2026-04-21 18:53 | -15.55738 | -51.50701 | 5428 ft | 184 kts | 149° |
| 2026-04-21 18:53 | -15.56847 | -51.50040 | 5880 ft | 185 kts | 149° |
| 2026-04-21 18:53 | -15.57955 | -51.49381 | 6331 ft | 185 kts | 149° |
| 2026-04-21 18:54 | -15.59073 | -51.48714 | 6767 ft | 185 kts | 149° |
| 2026-04-21 18:54 | -15.60193 | -51.48047 | 7193 ft | 186 kts | 149° |
| 2026-04-21 18:54 | -15.61314 | -51.47378 | 7618 ft | 187 kts | 149° |
| 2026-04-21 18:54 | -15.62458 | -51.46697 | 8049 ft | 188 kts | 149° |
| 2026-04-21 18:55 | -15.63201 | -51.46253 | 8338 ft | 188 kts | 149° |
| 2026-04-21 18:55 | -15.64721 | -51.45347 | 8894 ft | 188 kts | 150° |
| 2026-04-21 18:55 | -15.65858 | -51.44669 | 9292 ft | 189 kts | 150° |
| 2026-04-21 18:55 | -15.66990 | -51.43994 | 9686 ft | 189 kts | 150° |
| 2026-04-21 18:56 | -15.68131 | -51.43313 | 10069 ft | 189 kts | 150° |
| 2026-04-21 18:56 | -15.69286 | -51.42623 | 10443 ft | 189 kts | 150° |
| 2026-04-21 18:56 | -15.70421 | -51.41946 | 10794 ft | 190 kts | 150° |
| 2026-04-21 18:56 | -15.71579 | -51.41256 | 11130 ft | 192 kts | 150° |
| 2026-04-21 18:57 | -15.72733 | -51.40566 | 11474 ft | 192 kts | 150° |
| 2026-04-21 18:57 | -15.73889 | -51.39877 | 11801 ft | 192 kts | 150° |
| 2026-04-21 18:57 | -15.75048 | -51.39184 | 12124 ft | 192 kts | 150° |
| 2026-04-21 18:57 | -15.76208 | -51.38491 | 12432 ft | 192 kts | 150° |
| 2026-04-21 18:58 | -15.77376 | -51.37794 | 12721 ft | 193 kts | 150° |
| 2026-04-21 18:58 | -15.78547 | -51.37095 | 13025 ft | 193 kts | 150° |
| 2026-04-21 18:58 | -15.79707 | -51.36402 | 13310 ft | 193 kts | 150° |
| 2026-04-21 18:58 | -15.80882 | -51.35700 | 13593 ft | 194 kts | 150° |
| 2026-04-21 18:59 | -15.82062 | -51.34995 | 13877 ft | 193 kts | 150° |
| 2026-04-21 18:59 | -15.83229 | -51.34297 | 14157 ft | 193 kts | 150° |
| 2026-04-21 18:59 | -15.84406 | -51.33595 | 14427 ft | 192 kts | 150° |
| 2026-04-21 18:59 | -15.85560 | -51.32906 | 14683 ft | 192 kts | 150° |
| 2026-04-21 19:00 | -15.86720 | -51.32213 | 14936 ft | 192 kts | 150° |
| 2026-04-21 19:00 | -15.87886 | -51.31517 | 15195 ft | 191 kts | 150° |
| 2026-04-21 19:00 | -15.89034 | -51.30831 | 15429 ft | 191 kts | 150° |
| 2026-04-21 19:00 | -15.90190 | -51.30141 | 15658 ft | 191 kts | 150° |
| 2026-04-21 19:01 | -15.91343 | -51.29451 | 15895 ft | 190 kts | 150° |
| 2026-04-21 19:01 | -15.92495 | -51.28762 | 16121 ft | 190 kts | 150° |
| 2026-04-21 19:01 | -15.93643 | -51.28075 | 16326 ft | 190 kts | 150° |
| 2026-04-21 19:01 | -15.94785 | -51.27392 | 16514 ft | 191 kts | 149° |
| 2026-04-21 19:02 | -15.95946 | -51.26697 | 16715 ft | 191 kts | 149° |
| 2026-04-21 19:02 | -15.97105 | -51.26003 | 16910 ft | 191 kts | 149° |
| 2026-04-21 19:02 | -15.98252 | -51.25317 | 17097 ft | 191 kts | 149° |
| 2026-04-21 19:02 | -15.99412 | -51.24622 | 17289 ft | 191 kts | 149° |
| 2026-04-21 19:03 | -16.00569 | -51.23929 | 17487 ft | 191 kts | 149° |
| 2026-04-21 19:03 | -16.01712 | -51.23244 | 17666 ft | 191 kts | 150° |
| 2026-04-21 19:03 | -16.02872 | -51.22549 | 17859 ft | 191 kts | 150° |
| 2026-04-21 19:03 | -16.04011 | -51.21867 | 18046 ft | 190 kts | 150° |
| 2026-04-21 19:04 | -16.05171 | -51.21172 | 18232 ft | 190 kts | 150° |
| 2026-04-21 19:04 | -16.06309 | -51.20490 | 18419 ft | 189 kts | 150° |
| 2026-04-21 19:04 | -16.07457 | -51.19802 | 18596 ft | 188 kts | 150° |
| 2026-04-21 19:04 | -16.08588 | -51.19124 | 18749 ft | 189 kts | 150° |
| 2026-04-21 19:05 | -16.09729 | -51.18440 | 18904 ft | 189 kts | 150° |
| 2026-04-21 19:05 | -16.10879 | -51.17751 | 19070 ft | 189 kts | 150° |
| 2026-04-21 19:05 | -16.12024 | -51.17064 | 19223 ft | 189 kts | 150° |
| 2026-04-21 19:05 | -16.13166 | -51.16380 | 19362 ft | 190 kts | 150° |
| 2026-04-21 19:06 | -16.14308 | -51.15694 | 19510 ft | 190 kts | 150° |
| 2026-04-21 19:06 | -16.15464 | -51.15001 | 19667 ft | 190 kts | 150° |
| 2026-04-21 19:06 | -16.16614 | -51.14311 | 19816 ft | 190 kts | 150° |
| 2026-04-21 19:06 | -16.17759 | -51.13624 | 19950 ft | 190 kts | 150° |
| 2026-04-21 19:07 | -16.18915 | -51.12930 | 20097 ft | 190 kts | 150° |
| 2026-04-21 19:07 | -16.20056 | -51.12245 | 20232 ft | 190 kts | 151° |
| 2026-04-21 19:07 | -16.21199 | -51.11559 | 20375 ft | 189 kts | 151° |
| 2026-04-21 19:07 | -16.22343 | -51.10872 | 20529 ft | 188 kts | 151° |
| 2026-04-21 19:08 | -16.23477 | -51.10191 | 20662 ft | 188 kts | 151° |
| 2026-04-21 19:08 | -16.24610 | -51.09511 | 20782 ft | 188 kts | 151° |
| 2026-04-21 19:08 | -16.25755 | -51.08823 | 20878 ft | 189 kts | 151° |
| 2026-04-21 19:08 | -16.26899 | -51.08136 | 20987 ft | 190 kts | 151° |
| 2026-04-21 19:09 | -16.28047 | -51.07446 | 21099 ft | 190 kts | 151° |
| 2026-04-21 19:09 | -16.29183 | -51.06764 | 21220 ft | 189 kts | 151° |
| 2026-04-21 19:09 | -16.30331 | -51.06074 | 21330 ft | 190 kts | 151° |
| 2026-04-21 19:09 | -16.31487 | -51.05379 | 21433 ft | 190 kts | 151° |
| 2026-04-21 19:10 | -16.32631 | -51.04692 | 21537 ft | 190 kts | 151° |
| 2026-04-21 19:10 | -16.33784 | -51.03998 | 21661 ft | 189 kts | 151° |
| 2026-04-21 19:10 | -16.34926 | -51.03311 | 21761 ft | 189 kts | 151° |
| 2026-04-21 19:10 | -16.36065 | -51.02626 | 21869 ft | 189 kts | 151° |
| 2026-04-21 19:11 | -16.37215 | -51.01935 | 21968 ft | 189 kts | 152° |
| 2026-04-21 19:11 | -16.38367 | -51.01242 | 21996 ft | 193 kts | 152° |
| 2026-04-21 19:11 | -16.39551 | -51.00530 | 21998 ft | 198 kts | 152° |
| 2026-04-21 19:11 | -16.40791 | -50.99784 | 22043 ft | 209 kts | 151° |
| 2026-04-21 19:12 | -16.42055 | -50.99023 | 22267 ft | 212 kts | 152° |
| 2026-04-21 19:12 | -16.43333 | -50.98253 | 22591 ft | 211 kts | 152° |
| 2026-04-21 19:12 | -16.44595 | -50.97493 | 22906 ft | 209 kts | 152° |
| 2026-04-21 19:12 | -16.45864 | -50.96729 | 23180 ft | 209 kts | 151° |
| 2026-04-21 19:13 | -16.47122 | -50.95972 | 23429 ft | 209 kts | 152° |
| 2026-04-21 19:13 | -16.48375 | -50.95217 | 23664 ft | 210 kts | 151° |
| 2026-04-21 19:13 | -16.49664 | -50.94441 | 23885 ft | 212 kts | 151° |
| 2026-04-21 19:13 | -16.50952 | -50.93666 | 23994 ft | 219 kts | 151° |
| 2026-04-21 19:14 | -16.52319 | -50.92842 | 24012 ft | 230 kts | 151° |
| 2026-04-21 19:14 | -16.53726 | -50.91995 | 24024 ft | 240 kts | 151° |
| 2026-04-21 19:14 | -16.55212 | -50.91099 | 24030 ft | 250 kts | 151° |
| 2026-04-21 19:14 | -16.56754 | -50.90170 | 24031 ft | 260 kts | 151° |
| 2026-04-21 19:15 | -16.58352 | -50.89207 | 24029 ft | 268 kts | 151° |
| 2026-04-21 19:15 | -16.59989 | -50.88219 | 24035 ft | 276 kts | 151° |
| 2026-04-21 19:15 | -16.61687 | -50.87195 | 24037 ft | 284 kts | 151° |
| 2026-04-21 19:15 | -16.63412 | -50.86154 | 24038 ft | 290 kts | 151° |
| 2026-04-21 19:16 | -16.65189 | -50.85082 | 24038 ft | 297 kts | 151° |
| 2026-04-21 19:16 | -16.66988 | -50.83996 | 24037 ft | 302 kts | 151° |
| 2026-04-21 19:16 | -16.68849 | -50.82872 | 24033 ft | 308 kts | 151° |
| 2026-04-21 19:16 | -16.70705 | -50.81751 | 24034 ft | 312 kts | 151° |
| 2026-04-21 19:17 | -16.74522 | -50.79446 | 24031 ft | 319 kts | 150° |
| 2026-04-21 19:17 | -16.76470 | -50.78269 | 24031 ft | 322 kts | 151° |
| 2026-04-21 19:17 | -16.78410 | -50.77096 | 24027 ft | 325 kts | 151° |
| 2026-04-21 19:18 | -16.80389 | -50.75899 | 24022 ft | 327 kts | 151° |
| 2026-04-21 19:18 | -16.82351 | -50.74714 | 24026 ft | 329 kts | 150° |
| 2026-04-21 19:18 | -16.84341 | -50.73510 | 24028 ft | 330 kts | 151° |
| 2026-04-21 19:18 | -16.86345 | -50.72297 | 24028 ft | 332 kts | 151° |
| 2026-04-21 19:19 | -16.88366 | -50.71074 | 24031 ft | 333 kts | 151° |
| 2026-04-21 19:19 | -16.90367 | -50.69863 | 24026 ft | 334 kts | 151° |
| 2026-04-21 19:19 | -16.92372 | -50.68649 | 24035 ft | 335 kts | 151° |
| 2026-04-21 19:19 | -16.94401 | -50.67420 | 24040 ft | 335 kts | 151° |
| 2026-04-21 19:20 | -16.96442 | -50.66184 | 24031 ft | 336 kts | 151° |
| 2026-04-21 19:20 | -16.98453 | -50.64965 | 24028 ft | 336 kts | 151° |
| 2026-04-21 19:20 | -17.00492 | -50.63730 | 24038 ft | 337 kts | 151° |
| 2026-04-21 19:20 | -17.02524 | -50.62498 | 24037 ft | 337 kts | 151° |
| 2026-04-21 19:21 | -17.04542 | -50.61274 | 24031 ft | 338 kts | 150° |
| 2026-04-21 19:21 | -17.06582 | -50.60037 | 24035 ft | 338 kts | 151° |
| 2026-04-21 19:21 | -17.08624 | -50.58798 | 24035 ft | 338 kts | 151° |
| 2026-04-21 19:21 | -17.10675 | -50.57553 | 24033 ft | 338 kts | 151° |
| 2026-04-21 19:22 | -17.12708 | -50.56319 | 24035 ft | 338 kts | 151° |
| 2026-04-21 19:22 | -17.14745 | -50.55082 | 24038 ft | 339 kts | 151° |
| 2026-04-21 19:22 | -17.16795 | -50.53837 | 24037 ft | 339 kts | 151° |
| 2026-04-21 19:22 | -17.18824 | -50.52605 | 24031 ft | 340 kts | 150° |
| 2026-04-21 19:23 | -17.20886 | -50.51352 | 24034 ft | 340 kts | 151° |
| 2026-04-21 19:23 | -17.22926 | -50.50112 | 24023 ft | 340 kts | 151° |
| 2026-04-21 19:23 | -17.24989 | -50.48858 | 24028 ft | 340 kts | 150° |
| 2026-04-21 19:23 | -17.27042 | -50.47610 | 24032 ft | 340 kts | 151° |
| 2026-04-21 19:24 | -17.29079 | -50.46371 | 24027 ft | 340 kts | 151° |
| 2026-04-21 19:24 | -17.31124 | -50.45126 | 24021 ft | 340 kts | 151° |
| 2026-04-21 19:24 | -17.33170 | -50.43881 | 24020 ft | 340 kts | 151° |
| 2026-04-21 19:24 | -17.35234 | -50.42625 | 24022 ft | 340 kts | 151° |
| 2026-04-21 19:25 | -17.37295 | -50.41370 | 24007 ft | 340 kts | 151° |
| 2026-04-21 19:25 | -17.39216 | -50.40198 | 25174 ft | 298 kts | 151° |
| 2026-04-21 19:25 | -17.40905 | -50.39170 | 25839 ft | 282 kts | 151° |
| 2026-04-21 19:25 | -17.42602 | -50.38136 | 25968 ft | 281 kts | 151° |
| 2026-04-21 19:26 | -17.44322 | -50.37089 | 26002 ft | 287 kts | 151° |
| 2026-04-21 19:26 | -17.46049 | -50.36037 | 26001 ft | 292 kts | 150° |
| 2026-04-21 19:26 | -17.47826 | -50.34953 | 26004 ft | 296 kts | 150° |
| 2026-04-21 19:26 | -17.49617 | -50.33860 | 25997 ft | 301 kts | 150° |
| 2026-04-21 19:27 | -17.51453 | -50.32740 | 25996 ft | 305 kts | 150° |
| 2026-04-21 19:27 | -17.53298 | -50.31615 | 25994 ft | 309 kts | 150° |
| 2026-04-21 19:27 | -17.55171 | -50.30472 | 25995 ft | 312 kts | 150° |
| 2026-04-21 19:27 | -17.57065 | -50.29316 | 25993 ft | 315 kts | 150° |
| 2026-04-21 19:28 | -17.58963 | -50.28157 | 25996 ft | 318 kts | 150° |
| 2026-04-21 19:28 | -17.60891 | -50.26979 | 25990 ft | 321 kts | 150° |
| 2026-04-21 19:28 | -17.62831 | -50.25794 | 26003 ft | 323 kts | 150° |
| 2026-04-21 19:28 | -17.64786 | -50.24599 | 25992 ft | 326 kts | 150° |
| 2026-04-21 19:29 | -17.66765 | -50.23389 | 25988 ft | 328 kts | 150° |
| 2026-04-21 19:29 | -17.68726 | -50.22191 | 25981 ft | 329 kts | 150° |
| 2026-04-21 19:29 | -17.70716 | -50.20974 | 25987 ft | 331 kts | 150° |
| 2026-04-21 19:29 | -17.72705 | -50.19758 | 25987 ft | 332 kts | 150° |
| 2026-04-21 19:30 | -17.74711 | -50.18530 | 26004 ft | 333 kts | 150° |
| 2026-04-21 19:30 | -17.76726 | -50.17297 | 26001 ft | 334 kts | 150° |
| 2026-04-21 19:30 | -17.78737 | -50.16066 | 26003 ft | 335 kts | 150° |
| 2026-04-21 19:30 | -17.80767 | -50.14823 | 26003 ft | 336 kts | 150° |
| 2026-04-21 19:31 | -17.82792 | -50.13583 | 26006 ft | 337 kts | 150° |
| 2026-04-21 19:31 | -17.84822 | -50.12339 | 25991 ft | 338 kts | 150° |
| 2026-04-21 19:31 | -17.86844 | -50.11100 | 25994 ft | 338 kts | 150° |
| 2026-04-21 19:31 | -17.88878 | -50.09853 | 25997 ft | 338 kts | 150° |
| 2026-04-21 19:32 | -17.90934 | -50.08593 | 25996 ft | 338 kts | 150° |
| 2026-04-21 19:32 | -17.92952 | -50.07355 | 25997 ft | 339 kts | 150° |
| 2026-04-21 19:32 | -17.94991 | -50.06104 | 26002 ft | 339 kts | 150° |
| 2026-04-21 19:32 | -17.97041 | -50.04848 | 26006 ft | 339 kts | 151° |
| 2026-04-21 19:33 | -17.98495 | -50.04195 | 25977 ft | 339 kts | 165° |
| 2026-04-21 19:33 | -18.01637 | -50.04157 | 26016 ft | 339 kts | 193° |
| 2026-04-21 19:33 | -18.03785 | -50.05141 | 26042 ft | 340 kts | 208° |
| 2026-04-21 19:33 | -18.05866 | -50.06365 | 26006 ft | 342 kts | 208° |
| 2026-04-21 19:34 | -18.07964 | -50.07601 | 26008 ft | 342 kts | 208° |
| 2026-04-21 19:34 | -18.10025 | -50.08815 | 26003 ft | 343 kts | 208° |
| 2026-04-21 19:34 | -18.12118 | -50.10048 | 26006 ft | 343 kts | 208° |
| 2026-04-21 19:34 | -18.14214 | -50.11284 | 26007 ft | 344 kts | 208° |
| 2026-04-21 19:35 | -18.16308 | -50.12519 | 26014 ft | 344 kts | 208° |
| 2026-04-21 19:35 | -18.20493 | -50.14987 | 26009 ft | 344 kts | 208° |
| 2026-04-21 19:35 | -18.22571 | -50.16214 | 26012 ft | 344 kts | 208° |
| 2026-04-21 19:36 | -18.24678 | -50.17457 | 26013 ft | 344 kts | 208° |
| 2026-04-21 19:36 | -18.26779 | -50.18698 | 26015 ft | 344 kts | 208° |
| 2026-04-21 19:36 | -18.28877 | -50.19936 | 26009 ft | 344 kts | 208° |
| 2026-04-21 19:36 | -18.30959 | -50.21166 | 26004 ft | 345 kts | 208° |
| 2026-04-21 19:37 | -18.33069 | -50.22413 | 26004 ft | 345 kts | 208° |
| 2026-04-21 19:37 | -18.35153 | -50.23645 | 26002 ft | 345 kts | 208° |
| 2026-04-21 19:37 | -18.37273 | -50.24898 | 25999 ft | 345 kts | 208° |
| 2026-04-21 19:37 | -18.39365 | -50.26136 | 26009 ft | 345 kts | 208° |
| 2026-04-21 19:38 | -18.41457 | -50.27373 | 26001 ft | 345 kts | 208° |
| 2026-04-21 19:38 | -18.43564 | -50.28620 | 26007 ft | 345 kts | 208° |
| 2026-04-21 19:38 | -18.45672 | -50.29868 | 26011 ft | 345 kts | 208° |
| 2026-04-21 19:38 | -18.47754 | -50.31101 | 26008 ft | 345 kts | 208° |
| 2026-04-21 19:39 | -18.49854 | -50.32344 | 26005 ft | 345 kts | 208° |
| 2026-04-21 19:39 | -18.51949 | -50.33586 | 26008 ft | 345 kts | 208° |
| 2026-04-21 19:39 | -18.54045 | -50.34827 | 26007 ft | 345 kts | 208° |
| 2026-04-21 19:39 | -18.56145 | -50.36072 | 26007 ft | 345 kts | 208° |
| 2026-04-21 19:40 | -18.58250 | -50.37320 | 26002 ft | 345 kts | 208° |
| 2026-04-21 19:40 | -18.60331 | -50.38554 | 26003 ft | 345 kts | 208° |
| 2026-04-21 19:40 | -18.62431 | -50.39801 | 26011 ft | 345 kts | 208° |
| 2026-04-21 19:40 | -18.64530 | -50.41046 | 26006 ft | 345 kts | 208° |
| 2026-04-21 19:41 | -18.66633 | -50.42294 | 26003 ft | 345 kts | 208° |
| 2026-04-21 19:41 | -18.68704 | -50.43524 | 26004 ft | 345 kts | 208° |
| 2026-04-21 19:41 | -18.70806 | -50.44772 | 26004 ft | 345 kts | 209° |
| 2026-04-21 19:41 | -18.72912 | -50.46023 | 26001 ft | 345 kts | 208° |
| 2026-04-21 19:42 | -18.74991 | -50.47259 | 26000 ft | 345 kts | 208° |
| 2026-04-21 19:42 | -18.77088 | -50.48506 | 26002 ft | 345 kts | 208° |
| 2026-04-21 19:42 | -18.79188 | -50.49754 | 25995 ft | 345 kts | 208° |
| 2026-04-21 19:42 | -18.81292 | -50.51006 | 25993 ft | 344 kts | 208° |
| 2026-04-21 19:43 | -18.83396 | -50.52258 | 25998 ft | 344 kts | 208° |
| 2026-04-21 19:43 | -18.85477 | -50.53496 | 26001 ft | 344 kts | 208° |
| 2026-04-21 19:43 | -18.87570 | -50.54742 | 25998 ft | 344 kts | 208° |
| 2026-04-21 19:43 | -18.89647 | -50.55979 | 25996 ft | 345 kts | 208° |
| 2026-04-21 19:44 | -18.91749 | -50.57231 | 25996 ft | 345 kts | 208° |
| 2026-04-21 19:44 | -18.93855 | -50.58485 | 25992 ft | 345 kts | 208° |
| 2026-04-21 19:44 | -18.95949 | -50.59734 | 25995 ft | 345 kts | 208° |
| 2026-04-21 19:44 | -18.98023 | -50.60970 | 25994 ft | 344 kts | 209° |
| 2026-04-21 19:45 | -19.00120 | -50.62220 | 26000 ft | 344 kts | 208° |
| 2026-04-21 19:45 | -19.02226 | -50.63477 | 26002 ft | 344 kts | 208° |
| 2026-04-21 19:45 | -19.04287 | -50.64707 | 25995 ft | 344 kts | 208° |
| 2026-04-21 19:45 | -19.06387 | -50.65960 | 25994 ft | 344 kts | 209° |
| 2026-04-21 19:46 | -19.08490 | -50.67215 | 25993 ft | 344 kts | 209° |
| 2026-04-21 19:46 | -19.10566 | -50.68455 | 25988 ft | 344 kts | 209° |
| 2026-04-21 19:46 | -19.12659 | -50.69706 | 25991 ft | 344 kts | 209° |
| 2026-04-21 19:46 | -19.14758 | -50.70960 | 25987 ft | 344 kts | 209° |
| 2026-04-21 19:47 | -19.16822 | -50.72194 | 25987 ft | 344 kts | 209° |
| 2026-04-21 19:47 | -19.18920 | -50.73448 | 25992 ft | 344 kts | 209° |
| 2026-04-21 19:47 | -19.21017 | -50.74703 | 25985 ft | 344 kts | 209° |
| 2026-04-21 19:47 | -19.23109 | -50.75954 | 25985 ft | 344 kts | 209° |
| 2026-04-21 19:48 | -19.25185 | -50.77196 | 25981 ft | 344 kts | 209° |
| 2026-04-21 19:48 | -19.27274 | -50.78447 | 25991 ft | 344 kts | 209° |
| 2026-04-21 19:48 | -19.29353 | -50.79692 | 25988 ft | 344 kts | 209° |
| 2026-04-21 19:48 | -19.31443 | -50.80944 | 25988 ft | 344 kts | 209° |
| 2026-04-21 19:49 | -19.33529 | -50.82193 | 25987 ft | 343 kts | 209° |
| 2026-04-21 19:49 | -19.35602 | -50.83436 | 25979 ft | 341 kts | 209° |
| 2026-04-21 19:49 | -19.37677 | -50.84680 | 25983 ft | 340 kts | 209° |
| 2026-04-21 19:49 | -19.39723 | -50.85907 | 25981 ft | 338 kts | 209° |
| 2026-04-21 19:50 | -19.41095 | -50.86730 | 25976 ft | 337 kts | 209° |
| 2026-04-21 19:50 | -19.43822 | -50.88366 | 25986 ft | 336 kts | 209° |
| 2026-04-21 19:50 | -19.45861 | -50.89590 | 25989 ft | 335 kts | 209° |
| 2026-04-21 19:50 | -19.47881 | -50.90803 | 25984 ft | 335 kts | 209° |
| 2026-04-21 19:51 | -19.49921 | -50.92028 | 25989 ft | 334 kts | 209° |
| 2026-04-21 19:51 | -19.51953 | -50.93248 | 25982 ft | 334 kts | 209° |
| 2026-04-21 19:51 | -19.53975 | -50.94463 | 25981 ft | 333 kts | 209° |
| 2026-04-21 19:51 | -19.56003 | -50.95682 | 25973 ft | 333 kts | 209° |
| 2026-04-21 19:52 | -19.57993 | -50.96879 | 25990 ft | 332 kts | 209° |
| 2026-04-21 19:52 | -19.60007 | -50.98090 | 25992 ft | 332 kts | 209° |
| 2026-04-21 19:52 | -19.62033 | -50.99309 | 25981 ft | 332 kts | 209° |
| 2026-04-21 19:52 | -19.64049 | -51.00522 | 25979 ft | 332 kts | 209° |
| 2026-04-21 19:53 | -19.66072 | -51.01740 | 25980 ft | 331 kts | 209° |
| 2026-04-21 19:53 | -19.68060 | -51.02937 | 25979 ft | 331 kts | 209° |
| 2026-04-21 19:53 | -19.70078 | -51.04153 | 25987 ft | 331 kts | 209° |
| 2026-04-21 19:53 | -19.72081 | -51.05359 | 25983 ft | 331 kts | 209° |
| 2026-04-21 19:54 | -19.74092 | -51.06571 | 25977 ft | 331 kts | 209° |
| 2026-04-21 19:54 | -19.76074 | -51.07766 | 25990 ft | 331 kts | 209° |
| 2026-04-21 19:54 | -19.78098 | -51.08986 | 25983 ft | 331 kts | 209° |
| 2026-04-21 19:54 | -19.80089 | -51.10187 | 25973 ft | 331 kts | 209° |
| 2026-04-21 19:55 | -19.82093 | -51.11396 | 25982 ft | 330 kts | 209° |
| 2026-04-21 19:55 | -19.84098 | -51.12606 | 25983 ft | 330 kts | 209° |
| 2026-04-21 19:55 | -19.86109 | -51.13820 | 25981 ft | 330 kts | 209° |
| 2026-04-21 19:55 | -19.88094 | -51.15019 | 25979 ft | 330 kts | 210° |
| 2026-04-21 19:56 | -19.90081 | -51.16219 | 25986 ft | 329 kts | 210° |
| 2026-04-21 19:56 | -19.92084 | -51.17430 | 25985 ft | 330 kts | 210° |
| 2026-04-21 19:56 | -19.94083 | -51.18638 | 25984 ft | 330 kts | 210° |
| 2026-04-21 19:56 | -19.96074 | -51.19842 | 25988 ft | 330 kts | 210° |
| 2026-04-21 19:57 | -19.98071 | -51.21049 | 25990 ft | 330 kts | 210° |
| 2026-04-21 19:57 | -20.00083 | -51.22267 | 25998 ft | 329 kts | 210° |
| 2026-04-21 19:57 | -20.02078 | -51.23473 | 25994 ft | 330 kts | 210° |
| 2026-04-21 19:57 | -20.04054 | -51.24670 | 25994 ft | 330 kts | 210° |
| 2026-04-21 19:58 | -20.06050 | -51.25879 | 25994 ft | 330 kts | 210° |
| 2026-04-21 19:58 | -20.08068 | -51.27101 | 25998 ft | 330 kts | 210° |
| 2026-04-21 19:58 | -20.10060 | -51.28307 | 25992 ft | 330 kts | 210° |
| 2026-04-21 19:58 | -20.12058 | -51.29518 | 25990 ft | 330 kts | 210° |
| 2026-04-21 19:59 | -20.14042 | -51.30721 | 25990 ft | 330 kts | 210° |
| 2026-04-21 19:59 | -20.16055 | -51.31942 | 25997 ft | 331 kts | 210° |
| 2026-04-21 19:59 | -20.18056 | -51.33155 | 25989 ft | 331 kts | 210° |
| 2026-04-21 19:59 | -20.20074 | -51.34380 | 25989 ft | 331 kts | 210° |
| 2026-04-21 20:00 | -20.22067 | -51.35590 | 25991 ft | 331 kts | 210° |
| 2026-04-21 20:00 | -20.24055 | -51.36797 | 25988 ft | 331 kts | 210° |
| 2026-04-21 20:00 | -20.26079 | -51.38026 | 25984 ft | 331 kts | 210° |
| 2026-04-21 20:00 | -20.28088 | -51.39246 | 25986 ft | 331 kts | 210° |
| 2026-04-21 20:01 | -20.30077 | -51.40454 | 25991 ft | 331 kts | 210° |
| 2026-04-21 20:01 | -20.32085 | -51.41675 | 25993 ft | 330 kts | 210° |
| 2026-04-21 20:01 | -20.34089 | -51.42894 | 25990 ft | 331 kts | 210° |
| 2026-04-21 20:01 | -20.36096 | -51.44115 | 25988 ft | 331 kts | 210° |
| 2026-04-21 20:02 | -20.38078 | -51.45320 | 25987 ft | 331 kts | 210° |
| 2026-04-21 20:02 | -20.40085 | -51.46542 | 25990 ft | 330 kts | 210° |
| 2026-04-21 20:02 | -20.42092 | -51.47763 | 25991 ft | 331 kts | 210° |
| 2026-04-21 20:02 | -20.44100 | -51.48986 | 25991 ft | 331 kts | 210° |
| 2026-04-21 20:03 | -20.46105 | -51.50206 | 25989 ft | 331 kts | 210° |
| 2026-04-21 20:03 | -20.48114 | -51.51429 | 25987 ft | 331 kts | 210° |
| 2026-04-21 20:03 | -20.50117 | -51.52649 | 25991 ft | 331 kts | 210° |
| 2026-04-21 20:03 | -20.52122 | -51.53872 | 25988 ft | 331 kts | 210° |
| 2026-04-21 20:04 | -20.54117 | -51.55088 | 25992 ft | 331 kts | 210° |
| 2026-04-21 20:04 | -20.56103 | -51.56299 | 25995 ft | 331 kts | 210° |
| 2026-04-21 20:04 | -20.58104 | -51.57520 | 25994 ft | 331 kts | 210° |
| 2026-04-21 20:04 | -20.60122 | -51.58752 | 25996 ft | 331 kts | 210° |
| 2026-04-21 20:05 | -20.62099 | -51.59959 | 25998 ft | 331 kts | 210° |
| 2026-04-21 20:05 | -20.64100 | -51.61182 | 25995 ft | 331 kts | 210° |
| 2026-04-21 20:05 | -20.66111 | -51.62410 | 25998 ft | 331 kts | 210° |
| 2026-04-21 20:05 | -20.68121 | -51.63638 | 25999 ft | 331 kts | 210° |
| 2026-04-21 20:06 | -20.70115 | -51.64858 | 25994 ft | 331 kts | 210° |
| 2026-04-21 20:06 | -20.72117 | -51.66082 | 26001 ft | 331 kts | 211° |
| 2026-04-21 20:06 | -20.74145 | -51.67323 | 26000 ft | 331 kts | 211° |
| 2026-04-21 20:06 | -20.76167 | -51.68518 | 25988 ft | 331 kts | 207° |
| 2026-04-21 20:07 | -20.78221 | -51.69579 | 26002 ft | 331 kts | 207° |
| 2026-04-21 20:07 | -20.80303 | -51.70658 | 25999 ft | 331 kts | 207° |
| 2026-04-21 20:07 | -20.82383 | -51.71740 | 25990 ft | 331 kts | 207° |
| 2026-04-21 20:07 | -20.84457 | -51.72819 | 25983 ft | 331 kts | 207° |
| 2026-04-21 20:08 | -20.86557 | -51.73912 | 25981 ft | 331 kts | 207° |
| 2026-04-21 20:08 | -20.88641 | -51.74999 | 25971 ft | 331 kts | 207° |
| 2026-04-21 20:08 | -20.90693 | -51.76067 | 25969 ft | 331 kts | 207° |
| 2026-04-21 20:08 | -20.92773 | -51.77152 | 25970 ft | 331 kts | 207° |
| 2026-04-21 20:09 | -20.94851 | -51.78235 | 25969 ft | 331 kts | 207° |
| 2026-04-21 20:09 | -20.96931 | -51.79320 | 25968 ft | 331 kts | 207° |
| 2026-04-21 20:09 | -20.98991 | -51.80395 | 25965 ft | 331 kts | 207° |
| 2026-04-21 20:09 | -21.01075 | -51.81482 | 25962 ft | 332 kts | 207° |
| 2026-04-21 20:10 | -21.03170 | -51.82576 | 25970 ft | 331 kts | 207° |
| 2026-04-21 20:10 | -21.05247 | -51.83661 | 25972 ft | 331 kts | 207° |
| 2026-04-21 20:10 | -21.07325 | -51.84746 | 25973 ft | 331 kts | 207° |
| 2026-04-21 20:10 | -21.09401 | -51.85831 | 25971 ft | 331 kts | 207° |
| 2026-04-21 20:11 | -21.11459 | -51.86907 | 25980 ft | 331 kts | 207° |
| 2026-04-21 20:11 | -21.13538 | -51.87994 | 25974 ft | 331 kts | 207° |
| 2026-04-21 20:11 | -21.15622 | -51.89084 | 25971 ft | 331 kts | 207° |
| 2026-04-21 20:11 | -21.17688 | -51.90165 | 25973 ft | 331 kts | 207° |
| 2026-04-21 20:12 | -21.19761 | -51.91250 | 25977 ft | 331 kts | 207° |
| 2026-04-21 20:12 | -21.21851 | -51.92344 | 25974 ft | 331 kts | 207° |
| 2026-04-21 20:12 | -21.23933 | -51.93434 | 25977 ft | 331 kts | 207° |
| 2026-04-21 20:12 | -21.25984 | -51.94509 | 25973 ft | 331 kts | 207° |
| 2026-04-21 20:13 | -21.28062 | -51.95598 | 25975 ft | 331 kts | 207° |
| 2026-04-21 20:13 | -21.30139 | -51.96687 | 25973 ft | 331 kts | 207° |
| 2026-04-21 20:13 | -21.32218 | -51.97776 | 25980 ft | 331 kts | 207° |
| 2026-04-21 20:13 | -21.34291 | -51.98864 | 25977 ft | 331 kts | 207° |
| 2026-04-21 20:14 | -21.36376 | -51.99958 | 25973 ft | 331 kts | 207° |
| 2026-04-21 20:14 | -21.38439 | -52.01041 | 25967 ft | 331 kts | 207° |
| 2026-04-21 20:14 | -21.40523 | -52.02135 | 25967 ft | 331 kts | 207° |
| 2026-04-21 20:14 | -21.42595 | -52.03224 | 25970 ft | 331 kts | 207° |
| 2026-04-21 20:15 | -21.44669 | -52.04314 | 25965 ft | 331 kts | 207° |
| 2026-04-21 20:15 | -21.46735 | -52.05399 | 25963 ft | 331 kts | 207° |
| 2026-04-21 20:15 | -21.48815 | -52.06492 | 25969 ft | 331 kts | 207° |
| 2026-04-21 20:15 | -21.50884 | -52.07580 | 25969 ft | 331 kts | 207° |
| 2026-04-21 20:16 | -21.52959 | -52.08672 | 25961 ft | 331 kts | 207° |
| 2026-04-21 20:16 | -21.55019 | -52.09756 | 25968 ft | 331 kts | 207° |
| 2026-04-21 20:16 | -21.57095 | -52.10848 | 25979 ft | 331 kts | 207° |
| 2026-04-21 20:16 | -21.59171 | -52.11941 | 25980 ft | 331 kts | 207° |
| 2026-04-21 20:17 | -21.61257 | -52.13040 | 25978 ft | 331 kts | 207° |
| 2026-04-21 20:17 | -21.63337 | -52.14136 | 25985 ft | 331 kts | 207° |
| 2026-04-21 20:17 | -21.65397 | -52.15222 | 25981 ft | 331 kts | 207° |
| 2026-04-21 20:17 | -21.67490 | -52.16325 | 25980 ft | 331 kts | 207° |
| 2026-04-21 20:18 | -21.68850 | -52.17043 | 25976 ft | 331 kts | 207° |
| 2026-04-21 20:18 | -21.71638 | -52.18514 | 25984 ft | 331 kts | 207° |
| 2026-04-21 20:18 | -21.73693 | -52.19598 | 25990 ft | 331 kts | 208° |
| 2026-04-21 20:18 | -21.75781 | -52.20701 | 25975 ft | 331 kts | 207° |
| 2026-04-21 20:19 | -21.77833 | -52.21784 | 25974 ft | 331 kts | 207° |
| 2026-04-21 20:19 | -21.79905 | -52.22878 | 25983 ft | 331 kts | 207° |
| 2026-04-21 20:19 | -21.81983 | -52.23976 | 25984 ft | 331 kts | 207° |
| 2026-04-21 20:19 | -21.84058 | -52.25073 | 25988 ft | 330 kts | 208° |
| 2026-04-21 20:20 | -21.86106 | -52.26156 | 25978 ft | 330 kts | 207° |
| 2026-04-21 20:20 | -21.88178 | -52.27253 | 25975 ft | 330 kts | 208° |
| 2026-04-21 20:20 | -21.90242 | -52.28357 | 25973 ft | 331 kts | 208° |
| 2026-04-21 20:20 | -21.92327 | -52.29472 | 25973 ft | 330 kts | 208° |
| 2026-04-21 20:21 | -21.94389 | -52.30575 | 25984 ft | 330 kts | 208° |
| 2026-04-21 20:21 | -21.96436 | -52.31671 | 25989 ft | 330 kts | 208° |
| 2026-04-21 20:21 | -21.98507 | -52.32780 | 25985 ft | 330 kts | 208° |
| 2026-04-21 20:21 | -22.00567 | -52.33883 | 25986 ft | 330 kts | 208° |
| 2026-04-21 20:22 | -22.02606 | -52.34975 | 25991 ft | 330 kts | 208° |
| 2026-04-21 20:22 | -22.06721 | -52.37181 | 25990 ft | 330 kts | 208° |
| 2026-04-21 20:22 | -22.08787 | -52.38289 | 25988 ft | 330 kts | 208° |
| 2026-04-21 20:23 | -22.10854 | -52.39397 | 25995 ft | 330 kts | 208° |
| 2026-04-21 20:23 | -22.12966 | -52.40431 | 25994 ft | 330 kts | 206° |
| 2026-04-21 20:23 | -22.15060 | -52.41431 | 25997 ft | 330 kts | 206° |
| 2026-04-21 20:23 | -22.17165 | -52.42429 | 26002 ft | 330 kts | 206° |
| 2026-04-21 20:24 | -22.19277 | -52.43430 | 25997 ft | 330 kts | 205° |
| 2026-04-21 20:24 | -22.21381 | -52.44426 | 25996 ft | 330 kts | 206° |
| 2026-04-21 20:24 | -22.23472 | -52.45416 | 25997 ft | 330 kts | 206° |
| 2026-04-21 20:24 | -22.25594 | -52.46421 | 25993 ft | 330 kts | 205° |
| 2026-04-21 20:25 | -22.27684 | -52.47411 | 26000 ft | 330 kts | 205° |
| 2026-04-21 20:25 | -22.29797 | -52.48412 | 26005 ft | 330 kts | 206° |
| 2026-04-21 20:25 | -22.31909 | -52.49412 | 26001 ft | 330 kts | 206° |
| 2026-04-21 20:25 | -22.34024 | -52.50415 | 26000 ft | 330 kts | 205° |
| 2026-04-21 20:26 | -22.36118 | -52.51408 | 25997 ft | 330 kts | 206° |
| 2026-04-21 20:26 | -22.38229 | -52.52409 | 26005 ft | 330 kts | 206° |
| 2026-04-21 20:26 | -22.40346 | -52.53414 | 26000 ft | 330 kts | 206° |
| 2026-04-21 20:26 | -22.42442 | -52.54409 | 26000 ft | 329 kts | 206° |
| 2026-04-21 20:27 | -22.44537 | -52.55404 | 26009 ft | 329 kts | 206° |
| 2026-04-21 20:27 | -22.46640 | -52.56403 | 26004 ft | 329 kts | 206° |
| 2026-04-21 20:27 | -22.48753 | -52.57407 | 26004 ft | 329 kts | 206° |
| 2026-04-21 20:27 | -22.50853 | -52.58405 | 26010 ft | 329 kts | 206° |
| 2026-04-21 20:28 | -22.52951 | -52.59403 | 26009 ft | 329 kts | 206° |
| 2026-04-21 20:28 | -22.55056 | -52.60403 | 26005 ft | 329 kts | 206° |
| 2026-04-21 20:28 | -22.57139 | -52.61395 | 26000 ft | 329 kts | 205° |
| 2026-04-21 20:28 | -22.59244 | -52.62397 | 26012 ft | 329 kts | 205° |
| 2026-04-21 20:29 | -22.61338 | -52.63394 | 26016 ft | 329 kts | 206° |
| 2026-04-21 20:29 | -22.63450 | -52.64400 | 26007 ft | 329 kts | 206° |
| 2026-04-21 20:29 | -22.65572 | -52.65411 | 26012 ft | 329 kts | 206° |
| 2026-04-21 20:29 | -22.67675 | -52.66413 | 26014 ft | 329 kts | 206° |
| 2026-04-21 20:30 | -22.69757 | -52.67406 | 26009 ft | 329 kts | 206° |
| 2026-04-21 20:30 | -22.71876 | -52.68416 | 26010 ft | 329 kts | 206° |
| 2026-04-21 20:30 | -22.73989 | -52.69424 | 26005 ft | 329 kts | 206° |
| 2026-04-21 20:30 | -22.76082 | -52.70423 | 26007 ft | 329 kts | 206° |
| 2026-04-21 20:31 | -22.78176 | -52.71423 | 26012 ft | 329 kts | 206° |
| 2026-04-21 20:31 | -22.80289 | -52.72432 | 26005 ft | 329 kts | 206° |
| 2026-04-21 20:31 | -22.82350 | -52.73416 | 25919 ft | 322 kts | 206° |
| 2026-04-21 20:31 | -22.84397 | -52.74395 | 25781 ft | 316 kts | 206° |
| 2026-04-21 20:32 | -22.86381 | -52.75344 | 25645 ft | 311 kts | 206° |
| 2026-04-21 20:32 | -22.88356 | -52.76288 | 25513 ft | 306 kts | 206° |
| 2026-04-21 20:32 | -22.90301 | -52.77219 | 25382 ft | 302 kts | 206° |
| 2026-04-21 20:32 | -22.92236 | -52.78144 | 25183 ft | 301 kts | 206° |
| 2026-04-21 20:33 | -22.94138 | -52.79055 | 24985 ft | 300 kts | 206° |
| 2026-04-21 20:33 | -22.96055 | -52.79973 | 24791 ft | 299 kts | 206° |
| 2026-04-21 20:33 | -22.97944 | -52.80879 | 24599 ft | 297 kts | 206° |
| 2026-04-21 20:33 | -22.99851 | -52.81794 | 24409 ft | 297 kts | 206° |
| 2026-04-21 20:34 | -23.01748 | -52.82704 | 24214 ft | 296 kts | 206° |
| 2026-04-21 20:34 | -23.03622 | -52.83603 | 23975 ft | 297 kts | 207° |
| 2026-04-21 20:34 | -23.05528 | -52.84517 | 23709 ft | 299 kts | 206° |
| 2026-04-21 20:34 | -23.07435 | -52.85431 | 23442 ft | 301 kts | 206° |
| 2026-04-21 20:35 | -23.09361 | -52.86355 | 23170 ft | 302 kts | 206° |
| 2026-04-21 20:35 | -23.11295 | -52.87283 | 22903 ft | 303 kts | 206° |
| 2026-04-21 20:35 | -23.13221 | -52.88207 | 22645 ft | 304 kts | 206° |
| 2026-04-21 20:35 | -23.15168 | -52.89142 | 22379 ft | 305 kts | 206° |
| 2026-04-21 20:36 | -23.17119 | -52.90079 | 22112 ft | 305 kts | 206° |
| 2026-04-21 20:36 | -23.19043 | -52.91004 | 21857 ft | 306 kts | 206° |
| 2026-04-21 20:36 | -23.21010 | -52.91951 | 21596 ft | 307 kts | 206° |
| 2026-04-21 20:36 | -23.22974 | -52.92894 | 21333 ft | 307 kts | 206° |
| 2026-04-21 20:37 | -23.24916 | -52.93829 | 21074 ft | 307 kts | 206° |
| 2026-04-21 20:37 | -23.26881 | -52.94774 | 20810 ft | 307 kts | 206° |
| 2026-04-21 20:37 | -23.28844 | -52.95719 | 20549 ft | 307 kts | 206° |
| 2026-04-21 20:37 | -23.30806 | -52.96664 | 20287 ft | 307 kts | 206° |
| 2026-04-21 20:38 | -23.32767 | -52.97609 | 20025 ft | 308 kts | 206° |
| 2026-04-21 20:38 | -23.34735 | -52.98557 | 19712 ft | 310 kts | 206° |
| 2026-04-21 20:38 | -23.36695 | -52.99502 | 19360 ft | 312 kts | 206° |
| 2026-04-21 20:38 | -23.38727 | -53.00482 | 18980 ft | 315 kts | 206° |
| 2026-04-21 20:39 | -23.40729 | -53.01448 | 18609 ft | 317 kts | 206° |
| 2026-04-21 20:39 | -23.42768 | -53.02432 | 18234 ft | 319 kts | 206° |
| 2026-04-21 20:39 | -23.44790 | -53.03408 | 17851 ft | 321 kts | 206° |
| 2026-04-21 20:39 | -23.46865 | -53.04410 | 17323 ft | 326 kts | 206° |
| 2026-04-21 20:40 | -23.48918 | -53.05402 | 16804 ft | 323 kts | 206° |
| 2026-04-21 20:40 | -23.50962 | -53.06389 | 16270 ft | 317 kts | 206° |
| 2026-04-21 20:40 | -23.52972 | -53.07361 | 15749 ft | 313 kts | 205° |
| 2026-04-21 20:40 | -23.54927 | -53.08306 | 15234 ft | 309 kts | 205° |
| 2026-04-21 20:41 | -23.56897 | -53.09259 | 14699 ft | 306 kts | 206° |
| 2026-04-21 20:41 | -23.58838 | -53.10197 | 14177 ft | 304 kts | 206° |
| 2026-04-21 20:41 | -23.60765 | -53.11130 | 13659 ft | 302 kts | 205° |
| 2026-04-21 20:41 | -23.62676 | -53.12055 | 13143 ft | 301 kts | 205° |
| 2026-04-21 20:42 | -23.64595 | -53.12985 | 12621 ft | 300 kts | 205° |
| 2026-04-21 20:42 | -23.66513 | -53.13914 | 12027 ft | 302 kts | 205° |
| 2026-04-21 20:42 | -23.68443 | -53.14849 | 11332 ft | 306 kts | 205° |
| 2026-04-21 20:42 | -23.70353 | -53.15776 | 10615 ft | 296 kts | 205° |
| 2026-04-21 20:43 | -23.72205 | -53.16673 | 9894 ft | 287 kts | 205° |
| 2026-04-21 20:43 | -23.74001 | -53.17545 | 9171 ft | 280 kts | 205° |
| 2026-04-21 20:43 | -23.75759 | -53.18397 | 8448 ft | 274 kts | 205° |
| 2026-04-21 20:43 | -23.77472 | -53.19229 | 7733 ft | 269 kts | 205° |
| 2026-04-21 20:44 | -23.79181 | -53.20059 | 7008 ft | 266 kts | 204° |
| 2026-04-21 20:44 | -23.80855 | -53.20872 | 6302 ft | 264 kts | 204° |
| 2026-04-21 20:44 | -23.82529 | -53.21685 | 5592 ft | 261 kts | 204° |
| 2026-04-21 20:44 | -23.84162 | -53.22478 | 5065 ft | 252 kts | 204° |
| 2026-04-21 20:45 | -23.85749 | -53.23249 | 4534 ft | 245 kts | 204° |
| 2026-04-21 20:45 | -23.87268 | -53.23988 | 4230 ft | 228 kts | 204° |
| 2026-04-21 20:45 | -23.88624 | -53.24647 | 4176 ft | 202 kts | 205° |
| 2026-04-21 20:45 | -23.89836 | -53.25238 | 4154 ft | 175 kts | 205° |
| 2026-04-21 20:46 | -23.90879 | -53.25744 | 4161 ft | 161 kts | 205° |
| 2026-04-21 20:46 | -23.91926 | -53.26252 | 4193 ft | 165 kts | 205° |
| 2026-04-21 20:46 | -23.93000 | -53.26775 | 4200 ft | 171 kts | 204° |
| 2026-04-21 20:46 | -23.94111 | -53.27315 | 4202 ft | 176 kts | 204° |
| 2026-04-21 20:47 | -23.95238 | -53.27864 | 4201 ft | 181 kts | 204° |
| 2026-04-21 20:47 | -23.96410 | -53.28435 | 4198 ft | 188 kts | 204° |
| 2026-04-21 20:47 | -23.97658 | -53.29091 | 4205 ft | 207 kts | 216° |
| 2026-04-21 20:47 | -23.98550 | -53.30378 | 4210 ft | 220 kts | 252° |
| 2026-04-21 20:48 | -23.98621 | -53.31991 | 4152 ft | 206 kts | 287° |
| 2026-04-21 20:48 | -23.98003 | -53.33371 | 3718 ft | 201 kts | 300° |
| 2026-04-21 20:48 | -23.97401 | -53.34756 | 3198 ft | 203 kts | 295° |
| 2026-04-21 20:48 | -23.96881 | -53.36118 | 3082 ft | 182 kts | 294° |
| 2026-04-21 20:49 | -23.96240 | -53.37157 | 3047 ft | 150 kts | 330° |
| 2026-04-21 20:49 | -23.95277 | -53.37390 | 3094 ft | 146 kts | 3° |
| 2026-04-21 20:49 | -23.94175 | -53.37219 | 3139 ft | 181 kts | 13° |
| 2026-04-21 20:49 | -23.93012 | -53.36856 | 3046 ft | 163 kts | 19° |
| 2026-04-21 20:50 | -23.92004 | -53.36474 | 2960 ft | 142 kts | 20° |
| 2026-04-21 20:50 | -23.91047 | -53.36090 | 3000 ft | 154 kts | 21° |
| 2026-04-21 20:50 | -23.89989 | -53.35652 | 3011 ft | 168 kts | 21° |
| 2026-04-21 20:50 | -23.88852 | -53.35177 | 3007 ft | 179 kts | 21° |
| 2026-04-21 20:51 | -23.87816 | -53.34738 | 2910 ft | 138 kts | 22° |
| 2026-04-21 20:51 | -23.87020 | -53.34401 | 2718 ft | 109 kts | 22° |
| 2026-04-21 20:51 | -23.86342 | -53.34116 | 2624 ft | 108 kts | 21° |
| 2026-04-21 20:51 | -23.85590 | -53.33798 | 2525 ft | 121 kts | 22° |
| 2026-04-21 20:52 | -23.84756 | -53.33445 | 2382 ft | 134 kts | 22° |
| 2026-04-21 20:52 | -23.83870 | -53.33070 | 2200 ft | 134 kts | 22° |
| 2026-04-21 20:52 | -23.83071 | -53.32725 | 2010 ft | 114 kts | 24° |
| 2026-04-21 20:52 | -23.82320 | -53.32402 | 1895 ft | 117 kts | 20° |
| 2026-04-21 20:53 | -23.81543 | -53.32091 | 1789 ft | 114 kts | 21° |
| 2026-04-21 20:53 | -23.80796 | -53.31772 | 1585 ft | 107 kts | 23° |
| 2026-04-21 20:53 | -23.80105 | -53.31482 | 1556 ft | 105 kts | 6° |
| 2026-04-21 20:53 | -23.79440 | -53.31914 | 2044 ft | 138 kts | 286° |
| 2026-04-21 20:54 | -23.79717 | -53.32868 | 2799 ft | 148 kts | 240° |
| 2026-04-21 20:54 | -23.80359 | -53.33924 | 2769 ft | 156 kts | 233° |
| 2026-04-21 20:54 | -23.81260 | -53.34450 | 2522 ft | 162 kts | 170° |
| 2026-04-21 20:54 | -23.82082 | -53.33943 | 2018 ft | 129 kts | 105° |
| 2026-04-21 20:55 | -23.82200 | -53.33071 | 1974 ft | 114 kts | 79° |
| 2026-04-21 20:55 | -23.81757 | -53.32312 | 1893 ft | 126 kts | 34° |
| 2026-04-21 20:55 | -23.80938 | -53.31818 | 1618 ft | 123 kts | 20° |
| 2026-04-21 20:55 | -23.80196 | -53.31514 | 1536 ft | 107 kts | 26° |
| 2026-04-21 20:56 | -23.79677 | -53.30750 | 1861 ft | 150 kts | 77° |
| 2026-04-21 20:56 | -23.79925 | -53.29491 | 2188 ft | 149 kts | 112° |
| 2026-04-21 20:56 | -23.80459 | -53.28616 | 2293 ft | 130 kts | 156° |
| 2026-04-21 20:56 | -23.81264 | -53.28854 | 2015 ft | 137 kts | 248° |
| 2026-04-21 20:57 | -23.81215 | -53.29913 | 1909 ft | 135 kts | 328° |
| 2026-04-21 20:57 | -23.80493 | -53.30535 | 2062 ft | 119 kts | 292° |
| 2026-04-21 20:57 | -23.80723 | -53.31530 | 2014 ft | 128 kts | 232° |
| 2026-04-21 20:57 | -23.81324 | -53.32123 | 2277 ft | 119 kts | 214° |
| 2026-04-21 20:58 | -23.82145 | -53.32608 | 2483 ft | 151 kts | 200° |
| 2026-04-21 20:58 | -23.82898 | -53.33027 | 2840 ft | 125 kts | 251° |
| 2026-04-21 20:58 | -23.82499 | -53.33769 | 2220 ft | 126 kts | 13° |
| 2026-04-21 20:58 | -23.81932 | -53.33152 | 1909 ft | 119 kts | 66° |
| 2026-04-21 20:59 | -23.81608 | -53.32404 | 1670 ft | 103 kts | 59° |
| 2026-04-21 20:59 | -23.81025 | -53.31864 | 1646 ft | 117 kts | 26° |
| 2026-04-21 20:59 | -23.80281 | -53.31553 | 1514 ft | 90 kts | 20° |
| 2026-04-21 20:59 | -23.79996 | -53.31432 | 1514 ft | 7 kts | 21° |
| 2026-04-21 21:00 | -23.79941 | -53.31409 | 1514 ft | 9 kts | 21° |
| 2026-04-21 21:00 | -23.79871 | -53.31379 | 1514 ft | 11 kts | 21° |
| 2026-04-21 21:00 | -23.79811 | -53.31422 | 1511 ft | 16 kts | 288° |
| 2026-04-21 21:00 | -23.79812 | -53.31470 | 1509 ft | 4 kts | 159° |
| 2026-04-21 21:01 | -23.79829 | -53.31464 | 1510 ft | 2 kts | 230° |
| 2026-04-21 21:01 | -23.79818 | -53.31486 | 1509 ft | 0 kts | 290° |
| 2026-04-21 21:01 | -23.79815 | -53.31495 | 1509 ft | 0 kts | 299° |